createdAt,value
2017-09-14T00:00:46.391Z,88.8
2017-09-14T00:01:47.969Z,88.8
2017-09-14T00:02:49.532Z,88.7
2017-09-14T00:03:51.063Z,88.0
2017-09-14T00:04:52.619Z,88.2
2017-09-14T00:05:54.122Z,88.4
2017-09-14T00:06:55.641Z,88.0
2017-09-14T00:07:57.485Z,87.4
2017-09-14T00:08:59.110Z,88.0
2017-09-14T00:10:00.733Z,86.7
2017-09-14T00:11:02.288Z,87.6
2017-09-14T00:12:03.888Z,86.9
2017-09-14T00:13:05.873Z,86.8
2017-09-14T00:14:07.433Z,87.4
2017-09-14T00:15:08.995Z,87.4
2017-09-14T00:16:10.566Z,86.9
2017-09-14T00:17:12.445Z,87.7
2017-09-14T00:18:14.005Z,87.7
2017-09-14T00:19:15.558Z,87.8
2017-09-14T00:20:17.303Z,88.7
2017-09-14T00:21:18.930Z,88.5
2017-09-14T00:22:20.566Z,88.0
2017-09-14T00:23:22.106Z,88.4
2017-09-14T00:24:23.765Z,88.5
2017-09-14T00:25:25.256Z,88.9
2017-09-14T00:26:26.872Z,88.6
2017-09-14T00:27:28.394Z,88.8
2017-09-14T00:28:29.950Z,89.2
2017-09-14T00:29:31.486Z,90.2
2017-09-14T00:30:33.273Z,89.0
2017-09-14T00:31:34.839Z,88.9
2017-09-14T00:32:36.402Z,89.0
2017-09-14T00:33:38.028Z,88.7
2017-09-14T00:34:39.616Z,88.9
2017-09-14T00:35:42.508Z,87.7
2017-09-14T00:36:43.985Z,88.1
2017-09-14T00:37:45.524Z,88.5
2017-09-14T00:38:47.080Z,88.6
2017-09-14T00:39:48.655Z,88.1
2017-09-14T00:40:50.226Z,88.0
2017-09-14T00:41:51.794Z,88.4
2017-09-14T00:42:53.355Z,88.6
2017-09-14T00:43:55.199Z,88.8
2017-09-14T00:44:56.755Z,88.9
2017-09-14T00:45:58.376Z,88.5
2017-09-14T00:46:59.932Z,88.1
2017-09-14T00:48:01.510Z,88.4
2017-09-14T00:49:03.094Z,88.8
2017-09-14T00:50:04.694Z,89.4
2017-09-14T00:51:06.257Z,90.3
2017-09-14T00:52:08.006Z,89.1
2017-09-14T00:53:09.541Z,88.4
2017-09-14T00:54:11.227Z,88.9
2017-09-14T00:55:12.855Z,89.2
2017-09-14T00:56:14.399Z,89.9
2017-09-14T00:57:15.983Z,90.8
2017-09-14T00:58:17.473Z,90.3
2017-09-14T00:59:19.080Z,89.8
2017-09-14T01:00:20.599Z,89.7
2017-09-14T01:01:22.334Z,90.8
2017-09-14T01:02:23.926Z,90.7
2017-09-14T01:03:25.439Z,89.9
2017-09-14T01:04:27.123Z,90.1
2017-09-14T01:05:28.630Z,89.0
2017-09-14T01:06:30.573Z,88.9
2017-09-14T01:07:32.061Z,89.4
2017-09-14T01:08:33.649Z,89.5
2017-09-14T01:09:35.150Z,89.6
2017-09-14T01:10:36.838Z,89.8
2017-09-14T01:11:38.410Z,89.7
2017-09-14T01:12:39.929Z,89.0
2017-09-14T01:13:41.481Z,90.0
2017-09-14T01:14:43.053Z,89.7
2017-09-14T01:15:44.636Z,90.3
2017-09-14T01:16:46.200Z,89.6
2017-09-14T01:17:47.791Z,89.8
2017-09-14T01:18:49.332Z,89.7
2017-09-14T01:19:50.923Z,89.8
2017-09-14T01:20:52.673Z,90.3
2017-09-14T01:21:54.231Z,90.0
2017-09-14T01:22:55.786Z,89.6
2017-09-14T01:23:57.444Z,89.7
2017-09-14T01:24:59.033Z,89.8
2017-09-14T01:26:00.620Z,90.2
2017-09-14T01:27:02.248Z,89.7
2017-09-14T01:28:03.810Z,90.1
2017-09-14T01:29:05.349Z,89.9
2017-09-14T01:30:07.077Z,89.7
2017-09-14T01:31:08.630Z,89.2
2017-09-14T01:32:10.154Z,89.0
2017-09-14T01:33:11.692Z,88.9
2017-09-14T01:34:13.262Z,88.9
2017-09-14T01:35:14.848Z,89.3
2017-09-14T01:36:16.432Z,89.0
2017-09-14T01:37:17.978Z,88.7
2017-09-14T01:38:19.532Z,88.9
2017-09-14T01:39:21.133Z,89.2
2017-09-14T01:40:22.867Z,89.3
2017-09-14T01:41:24.399Z,89.5
2017-09-14T01:42:25.957Z,90.0
2017-09-14T01:43:27.549Z,89.3
2017-09-14T01:44:29.201Z,90.2
2017-09-14T01:45:30.830Z,90.6
2017-09-14T01:46:32.409Z,89.7
2017-09-14T01:47:34.833Z,90.2
2017-09-14T01:48:36.704Z,90.4
2017-09-14T01:49:38.163Z,91.1
2017-09-14T01:50:39.698Z,90.8
2017-09-14T01:51:41.389Z,91.4
2017-09-14T01:52:42.969Z,91.2
2017-09-14T01:53:44.483Z,91.4
2017-09-14T01:54:45.995Z,92.0
2017-09-14T01:55:47.696Z,91.8
2017-09-14T01:56:49.206Z,91.7
2017-09-14T01:57:50.717Z,92.4
2017-09-14T01:58:52.198Z,92.4
2017-09-14T01:59:54.717Z,92.6
2017-09-14T02:00:56.298Z,92.4
2017-09-14T02:01:57.914Z,92.4
2017-09-14T02:02:59.505Z,92.6
2017-09-14T02:04:01.268Z,92.4
2017-09-14T02:05:02.678Z,92.6
2017-09-14T02:06:04.256Z,92.7
2017-09-14T02:07:05.831Z,92.2
2017-09-14T02:08:07.423Z,92.2
2017-09-14T02:09:09.107Z,92.4
2017-09-14T02:10:10.760Z,92.7
2017-09-14T02:11:12.297Z,92.6
2017-09-14T02:12:13.995Z,92.6
2017-09-14T02:13:15.554Z,92.7
2017-09-14T02:14:17.420Z,92.8
2017-09-14T02:15:19.037Z,92.6
2017-09-14T02:16:20.599Z,93.0
2017-09-14T02:17:22.102Z,92.1
2017-09-14T02:18:23.904Z,92.8
2017-09-14T02:19:25.409Z,93.7
2017-09-14T02:20:26.928Z,93.9
2017-09-14T02:21:28.468Z,93.5
2017-09-14T02:22:30.184Z,93.5
2017-09-14T02:23:31.764Z,93.5
2017-09-14T02:24:33.403Z,94.2
2017-09-14T02:25:35.016Z,94.8
2017-09-14T02:26:36.625Z,94.6
2017-09-14T02:27:38.259Z,94.2
2017-09-14T02:28:39.793Z,93.5
2017-09-14T02:29:41.346Z,93.0
2017-09-14T02:30:42.987Z,92.6
2017-09-14T02:31:44.545Z,93.2
2017-09-14T02:32:46.049Z,93.3
2017-09-14T02:33:47.628Z,93.4
2017-09-14T02:34:49.252Z,93.4
2017-09-14T02:35:50.769Z,93.7
2017-09-14T02:36:52.469Z,93.6
2017-09-14T02:37:53.894Z,93.7
2017-09-14T02:38:55.476Z,94.0
2017-09-14T02:39:57.007Z,94.3
2017-09-14T02:40:58.544Z,94.1
2017-09-14T02:42:00.238Z,93.8
2017-09-14T02:43:01.793Z,94.7
2017-09-14T02:44:03.326Z,94.6
2017-09-14T02:45:04.871Z,94.7
2017-09-14T02:46:06.331Z,94.7
2017-09-14T02:47:07.822Z,95.0
2017-09-14T02:48:09.379Z,95.0
2017-09-14T02:49:10.850Z,95.6
2017-09-14T02:50:12.363Z,94.9
2017-09-14T02:51:14.039Z,95.3
2017-09-14T02:52:15.586Z,94.9
2017-09-14T02:53:17.093Z,95.5
2017-09-14T02:54:18.604Z,96.0
2017-09-14T02:55:20.256Z,95.7
2017-09-14T02:56:21.802Z,95.5
2017-09-14T02:57:23.342Z,94.7
2017-09-14T02:58:25.052Z,95.0
2017-09-14T02:59:26.578Z,94.8
2017-09-14T03:00:28.146Z,94.3
2017-09-14T03:01:29.709Z,94.5
2017-09-14T03:02:31.248Z,94.3
2017-09-14T03:03:32.742Z,94.5
2017-09-14T03:04:34.713Z,94.7
2017-09-14T03:05:36.195Z,93.8
2017-09-14T03:06:37.706Z,92.9
2017-09-14T03:07:39.227Z,92.6
2017-09-14T03:08:40.731Z,92.1
2017-09-14T03:09:42.308Z,92.0
2017-09-14T03:10:43.826Z,92.2
2017-09-14T03:11:45.345Z,91.8
2017-09-14T03:12:46.917Z,91.5
2017-09-14T03:13:48.542Z,91.8
2017-09-14T03:14:49.975Z,92.0
2017-09-14T03:15:51.480Z,91.4
2017-09-14T03:16:53.047Z,90.7
2017-09-14T03:17:54.596Z,91.0
2017-09-14T03:18:56.152Z,91.4
2017-09-14T03:19:57.974Z,91.2
2017-09-14T03:20:59.914Z,91.4
2017-09-14T03:22:01.433Z,91.2
2017-09-14T03:23:02.933Z,90.9
2017-09-14T03:24:04.534Z,91.1
2017-09-14T03:25:06.151Z,90.8
2017-09-14T03:26:07.622Z,91.4
2017-09-14T03:27:09.131Z,91.4
2017-09-14T03:28:10.623Z,91.1
2017-09-14T03:29:12.153Z,91.4
2017-09-14T03:30:13.644Z,91.4
2017-09-14T03:31:15.152Z,91.6
2017-09-14T03:32:17.390Z,91.1
2017-09-14T03:33:19.863Z,91.4
2017-09-14T03:34:21.518Z,91.8
2017-09-14T03:35:23.134Z,91.6
2017-09-14T03:36:24.921Z,92.2
2017-09-14T03:37:26.479Z,91.8
2017-09-14T03:38:30.903Z,91.4
2017-09-14T03:39:32.434Z,91.4
2017-09-14T03:40:33.947Z,91.3
2017-09-14T03:41:35.547Z,91.4
2017-09-14T03:42:37.060Z,91.1
2017-09-14T03:43:38.584Z,91.1
2017-09-14T03:44:40.166Z,90.9
2017-09-14T03:45:41.658Z,91.4
2017-09-14T03:46:43.325Z,91.9
2017-09-14T03:47:44.866Z,91.5
2017-09-14T03:48:46.488Z,91.3
2017-09-14T03:49:47.925Z,91.3
2017-09-14T03:50:49.420Z,91.7
2017-09-14T03:51:51.074Z,90.4
2017-09-14T03:52:52.695Z,90.5
2017-09-14T03:53:54.269Z,90.3
2017-09-14T03:54:55.771Z,90.3
2017-09-14T03:55:57.436Z,90.4
2017-09-14T03:56:58.942Z,89.6
2017-09-14T03:58:00.677Z,89.7
2017-09-14T03:59:02.181Z,89.9
2017-09-14T04:00:03.724Z,89.4
2017-09-14T04:01:05.809Z,89.2
2017-09-14T04:02:07.381Z,88.6
2017-09-14T04:03:08.935Z,88.4
2017-09-14T04:04:10.462Z,88.2
2017-09-14T04:05:12.738Z,88.0
2017-09-14T04:06:14.247Z,88.4
2017-09-14T04:07:16.178Z,87.4
2017-09-14T04:08:18.423Z,87.5
2017-09-14T04:09:19.996Z,88.4
2017-09-14T04:10:21.586Z,88.3
2017-09-14T04:11:23.125Z,88.7
2017-09-14T04:12:24.672Z,87.9
2017-09-14T04:13:26.630Z,87.7
2017-09-14T04:14:28.341Z,87.8
2017-09-14T04:15:29.962Z,86.8
2017-09-14T04:16:31.455Z,86.9
2017-09-14T04:17:33.013Z,87.4
2017-09-14T04:18:34.564Z,86.7
2017-09-14T04:19:36.199Z,86.7
2017-09-14T04:20:37.828Z,85.8
2017-09-14T04:21:39.372Z,85.7
2017-09-14T04:22:40.963Z,86.2
2017-09-14T04:23:42.554Z,85.6
2017-09-14T04:24:44.158Z,85.8
2017-09-14T04:25:45.682Z,85.5
2017-09-14T04:26:47.328Z,84.8
2017-09-14T04:27:49.028Z,85.1
2017-09-14T04:28:50.614Z,86.1
2017-09-14T04:29:52.179Z,86.8
2017-09-14T04:30:53.907Z,85.4
2017-09-14T04:31:55.558Z,85.1
2017-09-14T04:32:57.249Z,86.0
2017-09-14T04:33:59.164Z,85.7
2017-09-14T04:35:00.872Z,85.7
2017-09-14T04:36:02.443Z,86.0
2017-09-14T04:37:04.070Z,86.0
2017-09-14T04:38:05.632Z,86.6
2017-09-14T04:39:07.093Z,86.6
2017-09-14T04:40:08.685Z,86.5
2017-09-14T04:41:10.417Z,86.8
2017-09-14T04:42:12.039Z,87.1
2017-09-14T04:43:16.225Z,87.2
2017-09-14T04:44:17.926Z,86.7
2017-09-14T04:45:19.471Z,87.1
2017-09-14T04:46:21.005Z,87.3
2017-09-14T04:47:22.799Z,87.6
2017-09-14T04:48:24.590Z,87.7
2017-09-14T04:49:26.163Z,87.5
2017-09-14T04:50:27.817Z,87.5
2017-09-14T04:51:29.362Z,87.5
2017-09-14T04:52:30.971Z,87.0
2017-09-14T04:53:32.605Z,86.2
2017-09-14T04:54:34.125Z,86.5
2017-09-14T04:55:35.863Z,87.4
2017-09-14T04:56:37.455Z,86.6
2017-09-14T04:57:39.137Z,87.0
2017-09-14T04:58:40.822Z,87.7
2017-09-14T04:59:42.489Z,87.1
2017-09-14T05:00:44.015Z,87.3
2017-09-14T05:01:45.542Z,87.0
2017-09-14T05:02:47.126Z,86.8
2017-09-14T05:03:48.849Z,87.0
2017-09-14T05:04:50.388Z,87.1
2017-09-14T05:05:52.057Z,87.0
2017-09-14T05:06:53.716Z,86.6
2017-09-14T05:07:55.505Z,86.5
2017-09-14T05:08:57.125Z,86.6
2017-09-14T05:09:58.599Z,86.6
2017-09-14T05:11:00.111Z,87.2
2017-09-14T05:12:01.775Z,86.3
2017-09-14T05:13:03.368Z,85.9
2017-09-14T05:14:05.053Z,86.9
2017-09-14T05:15:06.619Z,86.6
2017-09-14T05:16:08.213Z,86.0
2017-09-14T05:17:09.753Z,86.9
2017-09-14T05:18:11.370Z,86.8
2017-09-14T05:19:12.907Z,86.8
2017-09-14T05:20:14.488Z,86.8
2017-09-14T05:21:16.044Z,86.7
2017-09-14T05:22:17.792Z,86.8
2017-09-14T05:23:19.336Z,87.4
2017-09-14T05:24:20.909Z,86.4
2017-09-14T05:25:22.496Z,86.7
2017-09-14T05:26:24.084Z,86.6
2017-09-14T05:27:25.765Z,86.9
2017-09-14T05:28:27.424Z,86.3
2017-09-14T05:29:29.154Z,85.9
2017-09-14T05:30:30.869Z,86.4
2017-09-14T05:31:32.424Z,86.2
2017-09-14T05:32:34.136Z,86.3
2017-09-14T05:33:35.695Z,86.1
2017-09-14T05:34:37.212Z,85.6
2017-09-14T05:35:38.775Z,85.7
2017-09-14T05:36:40.357Z,85.0
2017-09-14T05:37:42.030Z,84.8
2017-09-14T05:38:43.588Z,85.5
2017-09-14T05:39:45.186Z,85.2
2017-09-14T05:40:46.687Z,85.2
2017-09-14T05:41:48.431Z,85.4
2017-09-14T05:42:50.011Z,84.9
2017-09-14T05:43:51.524Z,85.4
2017-09-14T05:44:53.038Z,85.5
2017-09-14T05:45:54.662Z,84.9
2017-09-14T05:46:56.771Z,84.9
2017-09-14T05:47:58.468Z,85.3
2017-09-14T05:49:00.559Z,84.9
2017-09-14T05:50:02.128Z,85.1
2017-09-14T05:51:03.736Z,84.5
2017-09-14T05:52:05.269Z,85.0
2017-09-14T05:53:06.864Z,84.6
2017-09-14T05:54:08.430Z,85.0
2017-09-14T05:55:09.997Z,84.8
2017-09-14T05:56:11.546Z,84.6
2017-09-14T05:57:13.781Z,84.5
2017-09-14T05:58:15.372Z,84.6
2017-09-14T05:59:16.931Z,84.9
2017-09-14T06:00:19.889Z,85.2
2017-09-14T06:01:21.700Z,84.6
2017-09-14T06:02:23.342Z,84.9
2017-09-14T06:03:25.111Z,84.9
2017-09-14T06:04:26.824Z,84.5
2017-09-14T06:05:28.520Z,84.2
2017-09-14T06:06:30.221Z,84.5
2017-09-14T06:07:31.950Z,84.8
2017-09-14T06:08:34.043Z,84.5
2017-09-14T06:09:35.934Z,84.5
2017-09-14T06:10:37.649Z,83.9
2017-09-14T06:11:39.179Z,84.4
2017-09-14T06:12:40.938Z,84.2
2017-09-14T06:13:42.658Z,83.9
2017-09-14T06:14:44.346Z,84.3
2017-09-14T06:15:48.166Z,84.3
2017-09-14T06:17:43.634Z,83.4
2017-09-14T06:18:44.927Z,83.8
2017-09-14T06:19:46.637Z,83.7
2017-09-14T06:20:48.283Z,83.5
2017-09-14T06:21:49.940Z,82.7
2017-09-14T06:22:51.715Z,82.8
2017-09-14T06:23:53.250Z,82.0
2017-09-14T06:24:55.495Z,81.6
2017-09-14T06:25:57.323Z,81.6
2017-09-14T06:26:59.063Z,82.0
2017-09-14T06:28:05.433Z,81.5
2017-09-14T06:29:07.774Z,81.4
2017-09-14T06:30:09.723Z,81.1
2017-09-14T06:31:12.997Z,81.3
2017-09-14T06:32:14.602Z,81.5
2017-09-14T06:33:16.752Z,81.1
2017-09-14T06:34:19.099Z,81.3
2017-09-14T06:35:21.692Z,81.1
2017-09-14T06:36:24.658Z,80.7
2017-09-14T06:37:26.458Z,80.7
2017-09-14T06:38:28.820Z,80.2
2017-09-14T06:39:30.799Z,80.4
2017-09-14T06:40:33.141Z,80.7
2017-09-14T06:41:36.054Z,80.5
2017-09-14T06:43:55.452Z,80.4
2017-09-14T06:45:32.992Z,79.8
2017-09-14T06:47:10.746Z,80.3
2017-09-14T06:48:44.429Z,80.1
2017-09-14T06:49:54.957Z,80.3
2017-09-14T06:51:01.897Z,79.9
2017-09-14T06:52:04.577Z,79.8
2017-09-14T06:53:06.338Z,80.1
2017-09-14T06:54:08.068Z,80.5
2017-09-14T06:55:09.898Z,80.3
2017-09-14T06:56:11.543Z,80.4
2017-09-14T06:57:13.493Z,80.4
2017-09-14T06:58:15.321Z,80.4
2017-09-14T06:59:17.530Z,80.7
2017-09-14T07:00:20.286Z,80.2
2017-09-14T07:01:22.482Z,80.1
2017-09-14T07:02:24.777Z,80.4
2017-09-14T07:03:27.791Z,79.5
2017-09-14T07:04:29.653Z,79.5
2017-09-14T07:05:31.613Z,79.7
2017-09-14T07:06:33.455Z,79.1
2017-09-14T07:07:35.293Z,79.1
2017-09-14T07:08:37.352Z,79.6
2017-09-14T07:09:39.617Z,79.4
2017-09-14T07:10:41.534Z,78.9
2017-09-14T07:11:43.434Z,79.4
2017-09-14T07:12:45.562Z,78.9
2017-09-14T07:13:47.438Z,79.4
2017-09-14T07:14:49.389Z,78.1
2017-09-14T07:15:51.143Z,79.1
2017-09-14T07:16:52.904Z,79.0
2017-09-14T07:17:54.643Z,78.3
2017-09-14T07:18:56.444Z,78.4
2017-09-14T07:19:58.187Z,78.8
2017-09-14T07:20:59.829Z,77.9
2017-09-14T07:22:01.733Z,78.2
2017-09-14T07:23:03.529Z,78.2
2017-09-14T07:24:05.313Z,78.2
2017-09-14T07:25:07.224Z,77.8
2017-09-14T07:26:09.949Z,77.2
2017-09-14T07:27:18.842Z,77.3
2017-09-14T07:28:23.675Z,77.6
2017-09-14T07:29:28.996Z,77.3
2017-09-14T07:30:31.192Z,76.9
2017-09-14T07:31:38.464Z,77.1
2017-09-14T07:32:40.313Z,76.8
2017-09-14T07:33:42.783Z,76.6
2017-09-14T07:34:44.469Z,76.7
2017-09-14T07:35:46.110Z,76.4
2017-09-14T07:36:58.054Z,76.7
2017-09-14T07:37:59.431Z,76.8
2017-09-14T07:39:02.625Z,76.5
2017-09-14T07:40:04.900Z,76.8
2017-09-14T07:41:06.516Z,76.7
2017-09-14T07:42:10.288Z,77.1
2017-09-14T07:43:12.785Z,76.8
2017-09-14T07:44:26.101Z,76.4
2017-09-14T07:45:27.750Z,76.6
2017-09-14T07:46:29.750Z,76.4
2017-09-14T07:47:32.016Z,76.7
2017-09-14T07:48:36.445Z,76.0
2017-09-14T07:49:39.990Z,76.1
2017-09-14T07:50:41.592Z,76.2
2017-09-14T07:51:44.357Z,75.5
2017-09-14T07:52:45.691Z,76.1
2017-09-14T07:53:47.413Z,75.5
2017-09-14T07:54:48.983Z,75.8
2017-09-14T07:55:50.949Z,75.8
2017-09-14T07:56:52.543Z,76.2
2017-09-14T07:57:54.132Z,75.8
2017-09-14T07:58:55.616Z,75.2
2017-09-14T07:59:57.213Z,75.2
2017-09-14T08:00:58.952Z,75.6
2017-09-14T08:02:00.634Z,75.8
2017-09-14T08:03:02.321Z,75.5
2017-09-14T08:04:04.300Z,75.2
2017-09-14T08:05:06.553Z,75.2
2017-09-14T08:06:08.135Z,74.4
2017-09-14T08:07:10.372Z,75.0
2017-09-14T08:08:12.283Z,74.9
2017-09-14T08:09:15.901Z,74.6
2017-09-14T08:10:18.161Z,74.9
2017-09-14T08:11:21.167Z,74.4
2017-09-14T08:12:22.834Z,74.7
2017-09-14T08:13:25.063Z,74.3
2017-09-14T08:14:27.209Z,74.6
2017-09-14T08:15:29.140Z,74.3
2017-09-14T08:16:33.262Z,74.5
2017-09-14T08:17:34.825Z,74.2
2017-09-14T08:18:37.087Z,74.7
2017-09-14T08:19:39.061Z,74.1
2017-09-14T08:20:40.927Z,74.2
2017-09-14T08:21:43.570Z,74.5
2017-09-14T08:22:45.774Z,74.3
2017-09-14T08:23:47.404Z,74.2
2017-09-14T08:24:50.225Z,74.3
2017-09-14T08:25:52.010Z,74.6
2017-09-14T08:26:53.678Z,74.1
2017-09-14T08:27:55.466Z,74.0
2017-09-14T08:28:57.285Z,74.0
2017-09-14T08:29:59.145Z,74.7
2017-09-14T08:31:01.002Z,74.3
2017-09-14T08:32:02.644Z,74.4
2017-09-14T08:33:04.495Z,75.2
2017-09-14T08:34:06.276Z,74.9
2017-09-14T08:35:08.140Z,75.0
2017-09-14T08:36:09.971Z,75.4
2017-09-14T08:37:11.844Z,75.3
2017-09-14T08:38:13.831Z,74.5
2017-09-14T08:39:15.981Z,74.5
2017-09-14T08:40:18.585Z,74.9
2017-09-14T08:41:20.564Z,75.2
2017-09-14T08:42:22.708Z,75.4
2017-09-14T08:43:24.640Z,75.4
2017-09-14T08:44:26.817Z,75.2
2017-09-14T08:45:28.755Z,75.8
2017-09-14T08:46:30.801Z,76.2
2017-09-14T08:47:33.005Z,76.3
2017-09-14T08:48:35.838Z,76.9
2017-09-14T08:49:38.648Z,76.3
2017-09-14T08:50:40.383Z,76.2
2017-09-14T08:51:43.905Z,77.0
2017-09-14T08:52:45.720Z,76.9
2017-09-14T08:53:47.837Z,76.9
2017-09-14T08:54:49.765Z,77.5
2017-09-14T08:55:51.650Z,77.3
2017-09-14T08:56:53.543Z,77.7
2017-09-14T08:57:55.567Z,78.4
2017-09-14T08:58:57.391Z,78.3
2017-09-14T08:59:59.347Z,78.4
2017-09-14T09:01:01.242Z,78.9
2017-09-14T09:02:02.979Z,79.4
2017-09-14T09:03:04.967Z,79.9
2017-09-14T09:04:07.075Z,79.8
2017-09-14T09:05:08.975Z,79.7
2017-09-14T09:06:13.358Z,80.5
2017-09-14T09:07:15.332Z,80.9
2017-09-14T09:08:17.320Z,80.9
2017-09-14T09:09:19.545Z,80.6
2017-09-14T09:10:21.636Z,81.4
2017-09-14T09:11:25.141Z,80.6
2017-09-14T09:12:26.751Z,80.7
2017-09-14T09:13:29.447Z,80.6
2017-09-14T09:14:31.546Z,80.8
2017-09-14T09:15:33.560Z,81.1
2017-09-14T09:16:35.606Z,81.5
2017-09-14T09:17:37.838Z,81.6
2017-09-14T09:18:39.821Z,81.7
2017-09-14T09:19:42.726Z,81.4
2017-09-14T09:20:45.012Z,82.4
2017-09-14T09:21:47.025Z,82.7
2017-09-14T09:22:49.322Z,82.7
2017-09-14T09:23:51.392Z,82.5
2017-09-14T09:24:53.875Z,82.7
2017-09-14T09:25:56.027Z,83.2
2017-09-14T09:26:58.831Z,83.6
2017-09-14T09:28:00.667Z,83.3
2017-09-14T09:29:06.656Z,83.3
2017-09-14T09:30:08.470Z,83.8
2017-09-14T09:31:11.899Z,83.4
2017-09-14T09:32:14.351Z,83.5
2017-09-14T09:33:18.828Z,82.6
2017-09-14T09:35:07.404Z,83.8
2017-09-14T09:36:09.762Z,84.1
2017-09-14T09:37:11.490Z,84.4
2017-09-14T09:38:13.511Z,85.4
2017-09-14T09:39:19.515Z,85.1
2017-09-14T09:40:22.980Z,85.3
2017-09-14T09:41:25.877Z,86.7
2017-09-14T09:42:28.973Z,85.6
2017-09-14T09:43:31.244Z,86.3
2017-09-14T09:44:34.324Z,86.2
2017-09-14T09:45:36.413Z,86.1
2017-09-14T09:46:39.145Z,86.1
2017-09-14T09:47:41.222Z,87.1
2017-09-14T09:48:43.103Z,86.5
2017-09-14T09:49:45.499Z,86.7
2017-09-14T09:50:47.555Z,86.2
2017-09-14T09:51:49.351Z,86.3
2017-09-14T09:52:53.042Z,86.0
2017-09-14T09:53:55.236Z,85.7
2017-09-14T09:54:56.889Z,86.0
2017-09-14T09:55:58.536Z,86.2
2017-09-14T09:57:02.188Z,85.9
2017-09-14T09:58:03.857Z,86.0
2017-09-14T09:59:05.843Z,85.8
2017-09-14T10:00:07.769Z,85.1
2017-09-14T10:01:09.579Z,85.9
2017-09-14T10:02:11.614Z,85.0
2017-09-14T10:03:13.394Z,85.0
2017-09-14T10:04:15.073Z,85.0
2017-09-14T10:05:16.725Z,85.9
2017-09-14T10:06:18.299Z,85.2
2017-09-14T10:07:19.878Z,84.9
2017-09-14T10:08:21.464Z,84.7
2017-09-14T10:09:54.011Z,85.0
2017-09-14T10:10:55.571Z,85.1
2017-09-14T10:11:57.162Z,85.4
2017-09-14T10:12:58.705Z,85.3
2017-09-14T10:14:00.461Z,84.3
2017-09-14T10:15:02.052Z,84.0
2017-09-14T10:16:03.667Z,83.4
2017-09-14T10:17:05.363Z,83.3
2017-09-14T10:18:06.903Z,83.8
2017-09-14T10:19:08.523Z,84.1
2017-09-14T10:20:10.196Z,84.4
2017-09-14T10:21:11.747Z,84.6
2017-09-14T10:22:13.318Z,83.7
2017-09-14T10:23:14.938Z,84.5
2017-09-14T10:24:16.639Z,85.2
2017-09-14T10:25:18.626Z,85.0
2017-09-14T10:26:20.135Z,84.9
2017-09-14T10:27:22.201Z,84.0
2017-09-14T10:28:24.091Z,84.8
2017-09-14T10:29:25.793Z,83.8
2017-09-14T10:30:27.551Z,84.9
2017-09-14T10:31:29.216Z,85.0
2017-09-14T10:32:30.898Z,83.2
2017-09-14T10:33:32.594Z,83.6
2017-09-14T10:34:34.225Z,83.6
2017-09-14T10:35:35.927Z,82.7
2017-09-14T10:36:37.824Z,81.6
2017-09-14T10:37:39.577Z,82.4
2017-09-14T10:38:41.394Z,81.7
2017-09-14T10:39:43.330Z,83.4
2017-09-14T10:40:45.085Z,81.3
2017-09-14T10:41:46.752Z,82.5
2017-09-14T10:42:48.565Z,82.5
2017-09-14T10:43:56.379Z,82.4
2017-09-14T10:44:58.612Z,82.7
2017-09-14T10:46:00.482Z,82.5
2017-09-14T10:47:02.410Z,82.8
2017-09-14T10:48:04.442Z,82.4
2017-09-14T10:49:06.384Z,82.8
2017-09-14T10:50:08.105Z,82.7
2017-09-14T10:51:10.575Z,82.9
2017-09-14T10:52:12.548Z,83.2
2017-09-14T10:53:15.294Z,82.8
2017-09-14T10:54:17.896Z,83.0
2017-09-14T10:55:21.052Z,83.4
2017-09-14T10:56:23.629Z,82.8
2017-09-14T10:57:25.559Z,83.1
2017-09-14T10:58:29.464Z,82.3
2017-09-14T10:59:32.214Z,81.9
2017-09-14T11:00:36.403Z,81.7
2017-09-14T11:01:38.469Z,81.5
2017-09-14T11:02:40.618Z,81.7
2017-09-14T11:03:42.791Z,81.5
2017-09-14T11:04:44.924Z,81.2
2017-09-14T11:05:46.787Z,81.3
2017-09-14T11:06:48.829Z,80.7
2017-09-14T11:09:59.939Z,79.6
2017-09-14T11:11:04.175Z,79.7
2017-09-14T11:12:05.526Z,79.0
2017-09-14T11:13:07.446Z,78.4
2017-09-14T11:14:09.959Z,78.4
2017-09-14T11:15:12.299Z,78.2
2017-09-14T11:16:14.202Z,78.7
2017-09-14T11:17:16.401Z,78.0
2017-09-14T11:18:18.478Z,79.2
2017-09-14T11:19:20.274Z,78.8
2017-09-14T11:20:22.165Z,78.3
2017-09-14T11:21:23.828Z,77.5
2017-09-14T11:22:25.446Z,77.8
2017-09-14T11:23:28.763Z,78.1
2017-09-14T11:24:30.537Z,76.9
2017-09-14T11:25:32.115Z,76.7
2017-09-14T11:26:33.767Z,76.6
2017-09-14T11:27:35.400Z,76.7
2017-09-14T11:28:37.141Z,75.5
2017-09-14T11:29:38.866Z,76.3
2017-09-14T11:30:40.590Z,76.2
2017-09-14T11:31:42.212Z,77.0
2017-09-14T11:32:43.891Z,76.0
2017-09-14T11:33:50.278Z,75.9
2017-09-14T11:34:51.830Z,75.9
2017-09-14T11:35:53.614Z,75.9
2017-09-14T11:36:55.132Z,75.5
2017-09-14T11:37:57.131Z,76.2
2017-09-14T11:38:58.789Z,75.8
2017-09-14T11:40:00.502Z,75.8
2017-09-14T11:41:02.269Z,75.3
2017-09-14T11:42:05.167Z,74.5
2017-09-14T11:43:07.563Z,75.0
2017-09-14T11:44:09.102Z,74.1
2017-09-14T11:45:12.666Z,73.3
2017-09-14T11:46:14.334Z,72.0
2017-09-14T11:47:15.957Z,71.8
2017-09-14T11:48:17.640Z,72.2
2017-09-14T11:49:19.521Z,72.0
2017-09-14T11:50:21.236Z,72.4
2017-09-14T11:51:22.920Z,70.5
2017-09-14T11:52:24.557Z,66.9
2017-09-14T11:53:26.104Z,66.0
2017-09-14T11:54:27.694Z,67.3
2017-09-14T11:55:29.310Z,68.6
2017-09-14T11:56:30.905Z,69.8
2017-09-14T11:57:32.935Z,71.1
2017-09-14T11:58:34.507Z,72.0
2017-09-14T11:59:36.193Z,72.4
2017-09-14T12:00:37.859Z,72.5
2017-09-14T12:01:39.678Z,72.4
2017-09-14T12:02:41.623Z,73.0
2017-09-14T12:03:43.719Z,73.0
2017-09-14T12:04:45.751Z,73.1
2017-09-14T12:05:47.505Z,73.0
2017-09-14T12:06:49.238Z,73.5
2017-09-14T12:07:51.457Z,73.2
2017-09-14T12:08:52.931Z,72.9
2017-09-14T12:09:54.417Z,73.2
2017-09-14T12:10:56.442Z,73.3
2017-09-14T12:11:58.342Z,73.2
2017-09-14T12:13:00.364Z,73.2
2017-09-14T12:14:02.348Z,72.9
2017-09-14T12:15:04.160Z,73.4
2017-09-14T12:16:05.924Z,73.0
2017-09-14T12:17:07.675Z,73.4
2017-09-14T12:18:10.611Z,73.7
2017-09-14T12:19:12.612Z,74.7
2017-09-14T12:20:14.108Z,76.1
2017-09-14T12:21:15.705Z,76.3
2017-09-14T12:22:17.272Z,77.1
2017-09-14T12:23:18.947Z,77.2
2017-09-14T12:24:20.672Z,77.6
2017-09-14T12:25:22.876Z,77.7
2017-09-14T12:26:24.378Z,77.8
2017-09-14T12:27:25.956Z,78.1
2017-09-14T12:28:27.523Z,78.0
2017-09-14T12:29:29.135Z,77.3
2017-09-14T12:30:30.684Z,78.4
2017-09-14T12:31:32.575Z,78.8
2017-09-14T12:32:34.012Z,79.6
2017-09-14T12:33:35.526Z,79.7
2017-09-14T12:34:37.717Z,79.5
2017-09-14T12:35:39.244Z,79.7
2017-09-14T12:36:40.996Z,79.9
2017-09-14T12:37:42.922Z,80.2
2017-09-14T12:38:45.220Z,80.6
2017-09-14T12:39:46.939Z,80.5
2017-09-14T12:40:48.913Z,80.7
2017-09-14T12:41:50.469Z,80.9
2017-09-14T12:42:52.031Z,82.2
2017-09-14T12:43:53.654Z,81.5
2017-09-14T12:44:55.325Z,81.7
2017-09-14T12:45:56.933Z,81.2
2017-09-14T12:50:06.775Z,82.8
2017-09-14T12:51:08.844Z,83.0
2017-09-14T12:52:10.340Z,83.3
2017-09-14T12:53:12.020Z,82.8
2017-09-14T12:54:13.703Z,82.8
2017-09-14T12:55:15.294Z,82.7
2017-09-14T12:56:17.208Z,82.6
2017-09-14T12:57:18.753Z,81.9
2017-09-14T12:58:20.350Z,82.7
2017-09-14T12:59:22.450Z,82.5
2017-09-14T13:00:24.046Z,82.2
2017-09-14T13:01:25.720Z,81.9
2017-09-14T13:02:27.297Z,82.1
2017-09-14T13:03:28.917Z,79.9
2017-09-14T13:04:30.732Z,79.0
2017-09-14T13:05:32.651Z,77.0
2017-09-14T13:06:34.345Z,75.7
2017-09-14T13:07:35.977Z,75.7
2017-09-14T13:08:37.810Z,74.7
2017-09-14T13:09:39.370Z,73.5
2017-09-14T13:10:41.006Z,69.7
2017-09-14T13:11:42.740Z,69.2
2017-09-14T13:12:44.314Z,67.6
2017-09-14T13:13:45.842Z,62.4
2017-09-14T13:14:47.482Z,60.4
2017-09-14T13:15:49.181Z,60.6
2017-09-14T13:16:50.829Z,64.3
2017-09-14T13:17:57.333Z,66.2
2017-09-14T13:18:59.026Z,68.8
2017-09-14T13:20:00.581Z,70.4
2017-09-14T13:21:02.111Z,72.5
2017-09-14T13:22:03.713Z,73.2
2017-09-14T13:23:05.290Z,72.8
2017-09-14T13:24:06.876Z,73.1
2017-09-14T13:26:02.039Z,67.7
2017-09-14T13:27:03.722Z,59.7
2017-09-14T13:29:13.930Z,55.9
2017-09-14T13:30:16.155Z,52.9
2017-09-14T13:31:18.666Z,52.5
2017-09-14T13:32:20.468Z,49.5
2017-09-14T13:33:23.163Z,49.1
2017-09-14T13:34:26.397Z,51.0
2017-09-14T13:35:32.416Z,49.2
2017-09-14T13:37:17.062Z,48.4
2017-09-14T13:38:19.162Z,52.9
2017-09-14T13:39:40.911Z,57.9
2017-09-14T13:40:42.576Z,60.0
2017-09-14T13:41:44.007Z,60.3
2017-09-14T13:42:45.777Z,60.9
2017-09-14T13:43:47.415Z,63.2
2017-09-14T13:44:49.008Z,65.8
2017-09-14T13:45:50.659Z,66.6
2017-09-14T13:46:52.253Z,67.2
2017-09-14T13:47:53.936Z,67.2
2017-09-14T13:48:55.641Z,65.2
2017-09-14T13:49:57.265Z,64.8
2017-09-14T13:50:58.910Z,61.0
2017-09-14T13:52:00.567Z,60.0
2017-09-14T13:53:02.181Z,55.8
2017-09-14T13:54:03.769Z,52.0
2017-09-14T13:55:05.797Z,50.4
2017-09-14T13:56:07.400Z,48.6
2017-09-14T13:57:09.329Z,46.4
2017-09-14T13:58:11.003Z,46.8